sensor_id;sensor_type;location;lat;lon;timestamp;P1;durP1;ratioP1;P2;durP2;ratioP2
16737;SDS011;17906;47.684;10.806;2023-07-28T00:00:16;3.40;;;1.90;;
16737;SDS011;17906;47.684;10.806;2023-07-28T00:02:42;4.40;;;1.83;;
16737;SDS011;17906;47.684;10.806;2023-07-28T00:05:08;2.47;;;1.67;;
16737;SDS011;17906;47.684;10.806;2023-07-28T00:07:35;2.37;;;1.47;;
16737;SDS011;17906;47.684;10.806;2023-07-28T00:10:01;2.80;;;1.70;;
16737;SDS011;17906;47.684;10.806;2023-07-28T00:12:28;3.97;;;1.80;;
16737;SDS011;17906;47.684;10.806;2023-07-28T00:14:54;3.27;;;1.90;;
16737;SDS011;17906;47.684;10.806;2023-07-28T00:17:22;2.20;;;1.43;;
16737;SDS011;17906;47.684;10.806;2023-07-28T00:19:49;2.97;;;1.97;;
16737;SDS011;17906;47.684;10.806;2023-07-28T00:22:15;5.63;;;1.80;;
16737;SDS011;17906;47.684;10.806;2023-07-28T00:24:41;3.30;;;1.77;;
16737;SDS011;17906;47.684;10.806;2023-07-28T00:27:08;4.33;;;2.10;;
16737;SDS011;17906;47.684;10.806;2023-07-28T00:29:34;3.87;;;1.80;;
16737;SDS011;17906;47.684;10.806;2023-07-28T00:32:00;6.10;;;1.80;;
16737;SDS011;17906;47.684;10.806;2023-07-28T00:34:28;4.27;;;2.03;;
16737;SDS011;17906;47.684;10.806;2023-07-28T00:36:55;3.33;;;2.00;;
16737;SDS011;17906;47.684;10.806;2023-07-28T00:39:21;2.67;;;1.70;;
16737;SDS011;17906;47.684;10.806;2023-07-28T00:41:48;2.60;;;1.70;;
16737;SDS011;17906;47.684;10.806;2023-07-28T00:44:14;2.57;;;1.73;;
16737;SDS011;17906;47.684;10.806;2023-07-28T00:46:42;2.43;;;1.60;;
16737;SDS011;17906;47.684;10.806;2023-07-28T00:49:08;2.33;;;1.40;;
16737;SDS011;17906;47.684;10.806;2023-07-28T00:51:36;2.90;;;1.67;;
16737;SDS011;17906;47.684;10.806;2023-07-28T00:54:03;2.80;;;1.67;;
16737;SDS011;17906;47.684;10.806;2023-07-28T00:56:30;8.10;;;2.43;;
16737;SDS011;17906;47.684;10.806;2023-07-28T00:58:57;2.30;;;1.50;;
16737;SDS011;17906;47.684;10.806;2023-07-28T01:01:23;4.10;;;1.80;;
16737;SDS011;17906;47.684;10.806;2023-07-28T01:03:51;3.03;;;1.70;;
16737;SDS011;17906;47.684;10.806;2023-07-28T01:06:18;2.00;;;1.50;;
16737;SDS011;17906;47.684;10.806;2023-07-28T01:08:49;5.60;;;1.40;;
16737;SDS011;17906;47.684;10.806;2023-07-28T01:11:19;3.97;;;1.20;;
16737;SDS011;17906;47.684;10.806;2023-07-28T01:13:45;3.80;;;1.50;;
16737;SDS011;17906;47.684;10.806;2023-07-28T01:16:12;3.77;;;1.43;;
16737;SDS011;17906;47.684;10.806;2023-07-28T01:18:38;2.80;;;1.40;;
16737;SDS011;17906;47.684;10.806;2023-07-28T01:21:05;2.50;;;1.57;;
16737;SDS011;17906;47.684;10.806;2023-07-28T01:23:36;1.90;;;1.30;;
16737;SDS011;17906;47.684;10.806;2023-07-28T01:26:06;2.80;;;1.27;;
16737;SDS011;17906;47.684;10.806;2023-07-28T01:28:35;7.83;;;1.50;;
16737;SDS011;17906;47.684;10.806;2023-07-28T01:31:02;2.07;;;1.47;;
16737;SDS011;17906;47.684;10.806;2023-07-28T01:33:29;4.53;;;1.40;;
16737;SDS011;17906;47.684;10.806;2023-07-28T01:35:55;2.63;;;1.50;;
16737;SDS011;17906;47.684;10.806;2023-07-28T01:38:23;3.60;;;1.30;;
16737;SDS011;17906;47.684;10.806;2023-07-28T01:40:50;2.13;;;1.20;;
16737;SDS011;17906;47.684;10.806;2023-07-28T01:43:16;2.77;;;1.40;;
16737;SDS011;17906;47.684;10.806;2023-07-28T01:45:44;2.30;;;1.50;;
16737;SDS011;17906;47.684;10.806;2023-07-28T01:48:10;2.40;;;1.43;;
16737;SDS011;17906;47.684;10.806;2023-07-28T01:50:36;4.13;;;1.40;;
16737;SDS011;17906;47.684;10.806;2023-07-28T01:53:03;4.03;;;1.50;;
16737;SDS011;17906;47.684;10.806;2023-07-28T01:55:30;4.93;;;1.60;;
16737;SDS011;17906;47.684;10.806;2023-07-28T01:57:57;2.00;;;1.30;;
16737;SDS011;17906;47.684;10.806;2023-07-28T02:00:24;2.87;;;1.40;;
16737;SDS011;17906;47.684;10.806;2023-07-28T02:02:52;3.10;;;1.60;;
16737;SDS011;17906;47.684;10.806;2023-07-28T02:05:19;3.57;;;1.53;;
16737;SDS011;17906;47.684;10.806;2023-07-28T02:07:46;4.60;;;1.43;;
16737;SDS011;17906;47.684;10.806;2023-07-28T02:10:12;2.53;;;1.40;;
16737;SDS011;17906;47.684;10.806;2023-07-28T02:12:39;2.23;;;1.63;;
16737;SDS011;17906;47.684;10.806;2023-07-28T02:15:05;4.97;;;1.50;;
16737;SDS011;17906;47.684;10.806;2023-07-28T02:17:32;4.57;;;1.60;;
16737;SDS011;17906;47.684;10.806;2023-07-28T02:20:00;2.70;;;1.50;;
16737;SDS011;17906;47.684;10.806;2023-07-28T02:22:28;3.23;;;1.27;;
16737;SDS011;17906;47.684;10.806;2023-07-28T02:24:54;6.63;;;1.80;;
16737;SDS011;17906;47.684;10.806;2023-07-28T02:27:21;2.73;;;1.33;;
16737;SDS011;17906;47.684;10.806;2023-07-28T02:29:47;2.97;;;1.70;;
16737;SDS011;17906;47.684;10.806;2023-07-28T02:32:14;3.43;;;1.83;;
16737;SDS011;17906;47.684;10.806;2023-07-28T02:34:40;2.00;;;1.30;;
16737;SDS011;17906;47.684;10.806;2023-07-28T02:37:08;2.20;;;1.40;;
16737;SDS011;17906;47.684;10.806;2023-07-28T02:39:34;2.93;;;1.70;;
16737;SDS011;17906;47.684;10.806;2023-07-28T02:42:00;3.00;;;1.40;;
16737;SDS011;17906;47.684;10.806;2023-07-28T02:44:27;5.30;;;1.37;;
16737;SDS011;17906;47.684;10.806;2023-07-28T02:46:53;2.37;;;1.60;;
16737;SDS011;17906;47.684;10.806;2023-07-28T02:49:20;1.90;;;1.30;;
16737;SDS011;17906;47.684;10.806;2023-07-28T02:51:46;3.80;;;1.60;;
16737;SDS011;17906;47.684;10.806;2023-07-28T02:54:14;3.00;;;1.70;;
16737;SDS011;17906;47.684;10.806;2023-07-28T02:56:40;2.03;;;1.50;;
16737;SDS011;17906;47.684;10.806;2023-07-28T02:59:06;2.37;;;1.63;;
16737;SDS011;17906;47.684;10.806;2023-07-28T03:01:33;3.27;;;1.70;;
16737;SDS011;17906;47.684;10.806;2023-07-28T03:04:00;2.40;;;1.40;;
16737;SDS011;17906;47.684;10.806;2023-07-28T03:06:26;3.17;;;1.70;;
16737;SDS011;17906;47.684;10.806;2023-07-28T03:08:53;3.53;;;1.47;;
16737;SDS011;17906;47.684;10.806;2023-07-28T03:11:20;3.07;;;1.40;;
16737;SDS011;17906;47.684;10.806;2023-07-28T03:13:47;3.63;;;2.03;;
16737;SDS011;17906;47.684;10.806;2023-07-28T03:16:13;3.00;;;1.57;;
16737;SDS011;17906;47.684;10.806;2023-07-28T03:18:40;3.83;;;1.70;;
16737;SDS011;17906;47.684;10.806;2023-07-28T03:21:06;2.20;;;1.50;;
16737;SDS011;17906;47.684;10.806;2023-07-28T03:23:32;4.27;;;1.60;;
16737;SDS011;17906;47.684;10.806;2023-07-28T03:25:59;2.80;;;1.33;;
16737;SDS011;17906;47.684;10.806;2023-07-28T03:28:26;4.90;;;1.27;;
16737;SDS011;17906;47.684;10.806;2023-07-28T03:30:53;5.90;;;1.37;;
16737;SDS011;17906;47.684;10.806;2023-07-28T03:33:20;10.80;;;1.87;;
16737;SDS011;17906;47.684;10.806;2023-07-28T03:35:46;3.97;;;1.43;;
16737;SDS011;17906;47.684;10.806;2023-07-28T03:38:12;2.77;;;1.20;;
16737;SDS011;17906;47.684;10.806;2023-07-28T03:40:39;4.50;;;1.57;;
16737;SDS011;17906;47.684;10.806;2023-07-28T03:43:05;6.57;;;1.37;;
16737;SDS011;17906;47.684;10.806;2023-07-28T03:45:33;2.93;;;1.80;;
16737;SDS011;17906;47.684;10.806;2023-07-28T03:47:59;2.37;;;1.40;;
16737;SDS011;17906;47.684;10.806;2023-07-28T03:50:26;5.83;;;1.67;;
16737;SDS011;17906;47.684;10.806;2023-07-28T03:52:53;3.30;;;1.80;;
16737;SDS011;17906;47.684;10.806;2023-07-28T03:55:19;3.03;;;1.60;;
16737;SDS011;17906;47.684;10.806;2023-07-28T03:57:46;3.60;;;1.70;;
16737;SDS011;17906;47.684;10.806;2023-07-28T04:00:12;2.93;;;1.77;;
16737;SDS011;17906;47.684;10.806;2023-07-28T04:02:41;3.77;;;1.80;;
16737;SDS011;17906;47.684;10.806;2023-07-28T04:05:08;2.97;;;1.67;;
16737;SDS011;17906;47.684;10.806;2023-07-28T04:07:34;3.20;;;1.60;;
16737;SDS011;17906;47.684;10.806;2023-07-28T04:10:00;3.53;;;1.50;;
16737;SDS011;17906;47.684;10.806;2023-07-28T04:12:27;3.83;;;1.60;;
16737;SDS011;17906;47.684;10.806;2023-07-28T04:14:53;3.43;;;1.73;;
16737;SDS011;17906;47.684;10.806;2023-07-28T04:17:20;4.10;;;1.50;;
16737;SDS011;17906;47.684;10.806;2023-07-28T04:19:47;3.23;;;1.70;;
16737;SDS011;17906;47.684;10.806;2023-07-28T04:22:14;2.83;;;1.50;;
16737;SDS011;17906;47.684;10.806;2023-07-28T04:24:46;2.43;;;1.50;;
16737;SDS011;17906;47.684;10.806;2023-07-28T04:27:12;4.43;;;1.87;;
16737;SDS011;17906;47.684;10.806;2023-07-28T04:29:38;3.07;;;2.10;;
16737;SDS011;17906;47.684;10.806;2023-07-28T04:32:05;4.17;;;1.93;;
16737;SDS011;17906;47.684;10.806;2023-07-28T04:34:32;2.00;;;1.47;;
16737;SDS011;17906;47.684;10.806;2023-07-28T04:37:00;6.20;;;2.07;;
16737;SDS011;17906;47.684;10.806;2023-07-28T04:39:26;4.00;;;1.70;;
16737;SDS011;17906;47.684;10.806;2023-07-28T04:41:53;3.30;;;1.80;;
16737;SDS011;17906;47.684;10.806;2023-07-28T04:44:19;3.40;;;1.90;;
16737;SDS011;17906;47.684;10.806;2023-07-28T04:46:45;5.10;;;2.10;;
16737;SDS011;17906;47.684;10.806;2023-07-28T04:49:12;2.97;;;1.90;;
16737;SDS011;17906;47.684;10.806;2023-07-28T04:51:39;4.23;;;1.97;;
16737;SDS011;17906;47.684;10.806;2023-07-28T04:54:07;4.00;;;2.03;;
16737;SDS011;17906;47.684;10.806;2023-07-28T04:56:33;9.70;;;3.40;;
16737;SDS011;17906;47.684;10.806;2023-07-28T04:58:59;15.80;;;7.17;;
16737;SDS011;17906;47.684;10.806;2023-07-28T05:01:26;12.00;;;5.97;;
16737;SDS011;17906;47.684;10.806;2023-07-28T05:03:52;9.10;;;4.83;;
16737;SDS011;17906;47.684;10.806;2023-07-28T05:06:18;8.63;;;4.53;;
16737;SDS011;17906;47.684;10.806;2023-07-28T05:08:45;8.97;;;5.50;;
16737;SDS011;17906;47.684;10.806;2023-07-28T05:11:13;6.70;;;4.50;;
16737;SDS011;17906;47.684;10.806;2023-07-28T05:13:39;6.77;;;4.70;;
16737;SDS011;17906;47.684;10.806;2023-07-28T05:16:06;7.53;;;4.23;;
16737;SDS011;17906;47.684;10.806;2023-07-28T05:18:32;7.07;;;4.30;;
16737;SDS011;17906;47.684;10.806;2023-07-28T05:20:58;8.77;;;5.83;;
16737;SDS011;17906;47.684;10.806;2023-07-28T05:23:25;30.03;;;16.03;;
16737;SDS011;17906;47.684;10.806;2023-07-28T05:25:51;13.13;;;8.43;;
16737;SDS011;17906;47.684;10.806;2023-07-28T05:28:19;17.00;;;9.27;;
16737;SDS011;17906;47.684;10.806;2023-07-28T05:30:45;9.33;;;5.57;;
16737;SDS011;17906;47.684;10.806;2023-07-28T05:33:11;6.70;;;3.63;;
16737;SDS011;17906;47.684;10.806;2023-07-28T05:35:38;6.87;;;4.57;;
16737;SDS011;17906;47.684;10.806;2023-07-28T05:38:04;8.50;;;4.83;;
16737;SDS011;17906;47.684;10.806;2023-07-28T05:40:31;6.07;;;3.83;;
16737;SDS011;17906;47.684;10.806;2023-07-28T05:42:57;5.80;;;3.57;;
16737;SDS011;17906;47.684;10.806;2023-07-28T05:45:25;4.00;;;3.00;;
16737;SDS011;17906;47.684;10.806;2023-07-28T05:47:51;3.23;;;2.30;;
16737;SDS011;17906;47.684;10.806;2023-07-28T05:50:18;6.53;;;2.37;;
16737;SDS011;17906;47.684;10.806;2023-07-28T05:52:44;4.60;;;2.63;;
16737;SDS011;17906;47.684;10.806;2023-07-28T05:55:11;4.40;;;2.90;;
16737;SDS011;17906;47.684;10.806;2023-07-28T05:57:38;6.60;;;3.47;;
16737;SDS011;17906;47.684;10.806;2023-07-28T06:00:05;4.33;;;2.90;;
16737;SDS011;17906;47.684;10.806;2023-07-28T06:02:35;5.33;;;3.80;;
16737;SDS011;17906;47.684;10.806;2023-07-28T06:05:02;6.80;;;5.43;;
16737;SDS011;17906;47.684;10.806;2023-07-28T06:07:29;6.17;;;3.93;;
16737;SDS011;17906;47.684;10.806;2023-07-28T06:09:55;5.37;;;3.43;;
16737;SDS011;17906;47.684;10.806;2023-07-28T06:12:21;4.80;;;3.50;;
16737;SDS011;17906;47.684;10.806;2023-07-28T06:14:48;5.47;;;2.60;;
16737;SDS011;17906;47.684;10.806;2023-07-28T06:17:14;3.70;;;2.47;;
16737;SDS011;17906;47.684;10.806;2023-07-28T06:19:42;5.50;;;4.07;;
16737;SDS011;17906;47.684;10.806;2023-07-28T06:22:08;4.87;;;3.27;;
16737;SDS011;17906;47.684;10.806;2023-07-28T06:24:35;4.27;;;2.47;;
16737;SDS011;17906;47.684;10.806;2023-07-28T06:27:01;5.67;;;2.97;;
16737;SDS011;17906;47.684;10.806;2023-07-28T06:29:32;3.20;;;2.40;;
16737;SDS011;17906;47.684;10.806;2023-07-28T06:31:58;3.73;;;2.50;;
16737;SDS011;17906;47.684;10.806;2023-07-28T06:34:25;3.67;;;2.30;;
16737;SDS011;17906;47.684;10.806;2023-07-28T06:36:53;3.45;;;2.00;;
16737;SDS011;17906;47.684;10.806;2023-07-28T06:39:19;3.42;;;2.13;;
16737;SDS011;17906;47.684;10.806;2023-07-28T06:41:45;4.38;;;2.35;;
16737;SDS011;17906;47.684;10.806;2023-07-28T06:44:12;5.45;;;2.22;;
16737;SDS011;17906;47.684;10.806;2023-07-28T06:46:38;3.92;;;2.10;;
16737;SDS011;17906;47.684;10.806;2023-07-28T06:49:04;5.53;;;2.38;;
16737;SDS011;17906;47.684;10.806;2023-07-28T06:51:31;3.28;;;2.10;;
16737;SDS011;17906;47.684;10.806;2023-07-28T06:54:00;4.63;;;2.17;;
16737;SDS011;17906;47.684;10.806;2023-07-28T06:56:27;5.40;;;2.05;;
16737;SDS011;17906;47.684;10.806;2023-07-28T06:58:53;2.50;;;1.85;;
16737;SDS011;17906;47.684;10.806;2023-07-28T07:01:20;2.95;;;2.00;;
16737;SDS011;17906;47.684;10.806;2023-07-28T07:03:47;3.70;;;2.10;;
16737;SDS011;17906;47.684;10.806;2023-07-28T07:06:14;2.42;;;1.85;;
16737;SDS011;17906;47.684;10.806;2023-07-28T07:08:40;2.70;;;1.88;;
16737;SDS011;17906;47.684;10.806;2023-07-28T07:11:08;4.20;;;1.92;;
16737;SDS011;17906;47.684;10.806;2023-07-28T07:13:34;3.47;;;1.90;;
16737;SDS011;17906;47.684;10.806;2023-07-28T07:16:01;3.90;;;2.35;;
16737;SDS011;17906;47.684;10.806;2023-07-28T07:18:27;5.35;;;2.22;;
16737;SDS011;17906;47.684;10.806;2023-07-28T07:20:54;2.85;;;1.60;;
16737;SDS011;17906;47.684;10.806;2023-07-28T07:23:20;3.08;;;1.95;;
16737;SDS011;17906;47.684;10.806;2023-07-28T07:25:48;3.72;;;1.83;;
16737;SDS011;17906;47.684;10.806;2023-07-28T07:28:16;3.58;;;1.73;;
16737;SDS011;17906;47.684;10.806;2023-07-28T07:30:42;2.22;;;1.75;;
16737;SDS011;17906;47.684;10.806;2023-07-28T07:33:09;2.60;;;1.77;;
16737;SDS011;17906;47.684;10.806;2023-07-28T07:35:35;3.00;;;2.00;;
16737;SDS011;17906;47.684;10.806;2023-07-28T07:38:02;2.50;;;1.95;;
16737;SDS011;17906;47.684;10.806;2023-07-28T07:40:29;3.33;;;1.88;;
16737;SDS011;17906;47.684;10.806;2023-07-28T07:42:55;3.65;;;1.90;;
16737;SDS011;17906;47.684;10.806;2023-07-28T07:45:23;2.10;;;1.55;;
16737;SDS011;17906;47.684;10.806;2023-07-28T07:47:49;3.30;;;1.95;;
16737;SDS011;17906;47.684;10.806;2023-07-28T07:50:16;5.43;;;1.90;;
16737;SDS011;17906;47.684;10.806;2023-07-28T07:52:42;3.08;;;2.17;;
16737;SDS011;17906;47.684;10.806;2023-07-28T07:55:09;2.53;;;1.90;;
16737;SDS011;17906;47.684;10.806;2023-07-28T07:57:35;2.75;;;2.08;;
16737;SDS011;17906;47.684;10.806;2023-07-28T08:00:02;4.10;;;2.10;;
16737;SDS011;17906;47.684;10.806;2023-07-28T08:02:30;3.47;;;2.13;;
16737;SDS011;17906;47.684;10.806;2023-07-28T08:04:56;6.32;;;2.22;;
16737;SDS011;17906;47.684;10.806;2023-07-28T08:07:23;4.07;;;1.90;;
16737;SDS011;17906;47.684;10.806;2023-07-28T08:09:49;2.83;;;1.90;;
16737;SDS011;17906;47.684;10.806;2023-07-28T08:12:16;3.80;;;2.20;;
16737;SDS011;17906;47.684;10.806;2023-07-28T08:14:42;3.25;;;2.10;;
16737;SDS011;17906;47.684;10.806;2023-07-28T08:17:11;4.10;;;2.20;;
16737;SDS011;17906;47.684;10.806;2023-07-28T08:19:38;3.25;;;2.15;;
16737;SDS011;17906;47.684;10.806;2023-07-28T08:22:05;4.00;;;2.08;;
16737;SDS011;17906;47.684;10.806;2023-07-28T08:24:32;3.05;;;2.15;;
16737;SDS011;17906;47.684;10.806;2023-07-28T08:26:58;5.00;;;2.10;;
16737;SDS011;17906;47.684;10.806;2023-07-28T08:29:24;3.75;;;2.10;;
16737;SDS011;17906;47.684;10.806;2023-07-28T08:31:51;4.70;;;2.28;;
16737;SDS011;17906;47.684;10.806;2023-07-28T08:34:18;5.75;;;2.20;;
16737;SDS011;17906;47.684;10.806;2023-07-28T08:36:45;3.20;;;2.10;;
16737;SDS011;17906;47.684;10.806;2023-07-28T08:39:12;4.93;;;2.25;;
16737;SDS011;17906;47.684;10.806;2023-07-28T08:41:40;2.55;;;1.80;;
16737;SDS011;17906;47.684;10.806;2023-07-28T08:44:06;5.13;;;2.17;;
16737;SDS011;17906;47.684;10.806;2023-07-28T08:46:33;3.70;;;2.40;;
16737;SDS011;17906;47.684;10.806;2023-07-28T08:49:00;5.05;;;2.20;;
16737;SDS011;17906;47.684;10.806;2023-07-28T08:51:27;4.22;;;2.20;;
16737;SDS011;17906;47.684;10.806;2023-07-28T08:53:54;3.20;;;2.28;;
16737;SDS011;17906;47.684;10.806;2023-07-28T08:56:21;3.35;;;2.33;;
16737;SDS011;17906;47.684;10.806;2023-07-28T08:58:48;3.03;;;2.10;;
16737;SDS011;17906;47.684;10.806;2023-07-28T09:01:15;3.13;;;2.25;;
16737;SDS011;17906;47.684;10.806;2023-07-28T09:03:41;4.05;;;1.95;;
16737;SDS011;17906;47.684;10.806;2023-07-28T09:06:08;4.30;;;2.05;;
16737;SDS011;17906;47.684;10.806;2023-07-28T09:08:34;4.68;;;2.03;;
16737;SDS011;17906;47.684;10.806;2023-07-28T09:11:03;3.08;;;2.00;;
16737;SDS011;17906;47.684;10.806;2023-07-28T09:13:35;2.58;;;2.08;;
16737;SDS011;17906;47.684;10.806;2023-07-28T09:16:01;3.35;;;2.30;;
16737;SDS011;17906;47.684;10.806;2023-07-28T09:18:28;3.67;;;2.15;;
16737;SDS011;17906;47.684;10.806;2023-07-28T09:20:55;3.65;;;2.33;;
16737;SDS011;17906;47.684;10.806;2023-07-28T09:23:27;5.32;;;2.08;;
16737;SDS011;17906;47.684;10.806;2023-07-28T09:25:58;6.20;;;2.10;;
16737;SDS011;17906;47.684;10.806;2023-07-28T09:28:27;4.32;;;2.10;;
16737;SDS011;17906;47.684;10.806;2023-07-28T09:31:02;4.25;;;2.30;;
16737;SDS011;17906;47.684;10.806;2023-07-28T09:33:30;3.50;;;2.10;;
16737;SDS011;17906;47.684;10.806;2023-07-28T09:35:57;3.83;;;2.17;;
16737;SDS011;17906;47.684;10.806;2023-07-28T09:38:24;3.55;;;2.35;;
16737;SDS011;17906;47.684;10.806;2023-07-28T09:40:53;4.95;;;2.30;;
16737;SDS011;17906;47.684;10.806;2023-07-28T09:43:20;2.78;;;2.20;;
16737;SDS011;17906;47.684;10.806;2023-07-28T09:45:48;2.67;;;2.08;;
16737;SDS011;17906;47.684;10.806;2023-07-28T09:48:14;3.42;;;2.22;;
16737;SDS011;17906;47.684;10.806;2023-07-28T09:50:42;4.72;;;1.90;;
16737;SDS011;17906;47.684;10.806;2023-07-28T09:53:09;3.72;;;2.20;;
16737;SDS011;17906;47.684;10.806;2023-07-28T09:55:38;2.75;;;2.20;;
16737;SDS011;17906;47.684;10.806;2023-07-28T09:58:05;6.28;;;2.28;;
16737;SDS011;17906;47.684;10.806;2023-07-28T10:00:32;4.88;;;2.30;;
16737;SDS011;17906;47.684;10.806;2023-07-28T10:03:00;3.83;;;2.47;;
16737;SDS011;17906;47.684;10.806;2023-07-28T10:05:27;3.80;;;2.25;;
16737;SDS011;17906;47.684;10.806;2023-07-28T10:07:54;2.85;;;2.25;;
16737;SDS011;17906;47.684;10.806;2023-07-28T10:10:21;4.30;;;2.40;;
16737;SDS011;17906;47.684;10.806;2023-07-28T10:12:48;4.63;;;2.58;;
16737;SDS011;17906;47.684;10.806;2023-07-28T10:15:16;3.53;;;2.58;;
16737;SDS011;17906;47.684;10.806;2023-07-28T10:17:43;3.22;;;2.17;;
16737;SDS011;17906;47.684;10.806;2023-07-28T10:22:54;4.75;;;2.67;;
16737;SDS011;17906;47.684;10.806;2023-07-28T10:25:27;3.78;;;2.83;;
16737;SDS011;17906;47.684;10.806;2023-07-28T10:27:54;4.57;;;2.20;;
16737;SDS011;17906;47.684;10.806;2023-07-28T10:30:20;4.45;;;2.28;;
16737;SDS011;17906;47.684;10.806;2023-07-28T10:32:48;5.07;;;2.38;;
16737;SDS011;17906;47.684;10.806;2023-07-28T10:35:21;3.53;;;2.58;;
16737;SDS011;17906;47.684;10.806;2023-07-28T10:37:48;3.17;;;2.30;;
16737;SDS011;17906;47.684;10.806;2023-07-28T10:40:25;5.35;;;2.53;;
16737;SDS011;17906;47.684;10.806;2023-07-28T10:42:52;4.38;;;2.42;;
16737;SDS011;17906;47.684;10.806;2023-07-28T10:45:19;4.68;;;2.67;;
16737;SDS011;17906;47.684;10.806;2023-07-28T10:47:46;3.90;;;2.30;;
16737;SDS011;17906;47.684;10.806;2023-07-28T10:50:13;3.85;;;2.58;;
16737;SDS011;17906;47.684;10.806;2023-07-28T10:52:39;2.40;;;2.08;;
16737;SDS011;17906;47.684;10.806;2023-07-28T10:55:11;3.67;;;2.35;;
16737;SDS011;17906;47.684;10.806;2023-07-28T10:57:38;4.30;;;2.50;;
16737;SDS011;17906;47.684;10.806;2023-07-28T11:00:06;3.28;;;2.20;;
16737;SDS011;17906;47.684;10.806;2023-07-28T11:02:36;3.97;;;2.63;;
16737;SDS011;17906;47.684;10.806;2023-07-28T11:05:05;3.83;;;2.67;;
16737;SDS011;17906;47.684;10.806;2023-07-28T11:07:31;4.55;;;2.50;;
16737;SDS011;17906;47.684;10.806;2023-07-28T11:09:59;3.88;;;2.58;;
16737;SDS011;17906;47.684;10.806;2023-07-28T11:12:25;4.55;;;2.55;;
16737;SDS011;17906;47.684;10.806;2023-07-28T11:14:53;5.22;;;2.42;;
16737;SDS011;17906;47.684;10.806;2023-07-28T11:17:20;4.88;;;2.55;;
16737;SDS011;17906;47.684;10.806;2023-07-28T11:19:46;6.78;;;2.60;;
16737;SDS011;17906;47.684;10.806;2023-07-28T11:22:16;4.07;;;2.35;;
16737;SDS011;17906;47.684;10.806;2023-07-28T11:24:42;3.67;;;2.55;;
16737;SDS011;17906;47.684;10.806;2023-07-28T11:27:10;6.75;;;2.38;;
16737;SDS011;17906;47.684;10.806;2023-07-28T11:29:36;3.22;;;2.70;;
16737;SDS011;17906;47.684;10.806;2023-07-28T11:32:04;3.65;;;2.40;;
16737;SDS011;17906;47.684;10.806;2023-07-28T11:34:33;5.13;;;2.88;;
16737;SDS011;17906;47.684;10.806;2023-07-28T11:37:00;3.45;;;2.53;;
16737;SDS011;17906;47.684;10.806;2023-07-28T11:39:29;4.15;;;2.95;;
16737;SDS011;17906;47.684;10.806;2023-07-28T11:41:56;4.70;;;2.60;;
16737;SDS011;17906;47.684;10.806;2023-07-28T11:44:22;4.30;;;2.80;;
16737;SDS011;17906;47.684;10.806;2023-07-28T11:46:49;7.90;;;5.07;;
16737;SDS011;17906;47.684;10.806;2023-07-28T11:49:20;4.82;;;2.58;;
16737;SDS011;17906;47.684;10.806;2023-07-28T11:51:47;3.95;;;2.47;;
16737;SDS011;17906;47.684;10.806;2023-07-28T11:54:14;3.15;;;2.50;;
16737;SDS011;17906;47.684;10.806;2023-07-28T11:56:41;5.07;;;2.70;;
16737;SDS011;17906;47.684;10.806;2023-07-28T11:59:08;6.70;;;2.88;;
16737;SDS011;17906;47.684;10.806;2023-07-28T12:01:34;4.45;;;2.67;;
16737;SDS011;17906;47.684;10.806;2023-07-28T12:09:25;4.88;;;3.50;;
16737;SDS011;17906;47.684;10.806;2023-07-28T12:11:51;4.13;;;2.47;;
16737;SDS011;17906;47.684;10.806;2023-07-28T12:14:29;4.85;;;3.15;;
16737;SDS011;17906;47.684;10.806;2023-07-28T12:16:56;3.65;;;2.63;;
16737;SDS011;17906;47.684;10.806;2023-07-28T12:19:22;6.38;;;2.40;;
16737;SDS011;17906;47.684;10.806;2023-07-28T12:21:49;5.13;;;2.35;;
16737;SDS011;17906;47.684;10.806;2023-07-28T12:24:16;5.05;;;2.78;;
16737;SDS011;17906;47.684;10.806;2023-07-28T12:26:44;4.32;;;2.75;;
16737;SDS011;17906;47.684;10.806;2023-07-28T12:29:11;4.57;;;2.35;;
16737;SDS011;17906;47.684;10.806;2023-07-28T12:31:37;5.32;;;2.67;;
16737;SDS011;17906;47.684;10.806;2023-07-28T12:34:04;7.00;;;3.00;;
16737;SDS011;17906;47.684;10.806;2023-07-28T12:36:30;4.28;;;2.72;;
16737;SDS011;17906;47.684;10.806;2023-07-28T12:38:56;3.83;;;2.70;;
16737;SDS011;17906;47.684;10.806;2023-07-28T12:41:23;3.55;;;2.40;;
16737;SDS011;17906;47.684;10.806;2023-07-28T12:43:51;3.88;;;2.55;;
16737;SDS011;17906;47.684;10.806;2023-07-28T12:46:17;4.78;;;2.65;;
16737;SDS011;17906;47.684;10.806;2023-07-28T12:48:44;5.13;;;2.72;;
16737;SDS011;17906;47.684;10.806;2023-07-28T12:51:10;3.70;;;2.55;;
16737;SDS011;17906;47.684;10.806;2023-07-28T12:53:37;3.53;;;2.72;;
16737;SDS011;17906;47.684;10.806;2023-07-28T12:56:03;6.15;;;2.60;;
16737;SDS011;17906;47.684;10.806;2023-07-28T12:58:30;3.17;;;2.20;;
16737;SDS011;17906;47.684;10.806;2023-07-28T13:01:00;3.17;;;2.30;;
16737;SDS011;17906;47.684;10.806;2023-07-28T13:03:26;3.45;;;2.33;;
16737;SDS011;17906;47.684;10.806;2023-07-28T13:05:53;4.35;;;2.40;;
16737;SDS011;17906;47.684;10.806;2023-07-28T13:08:20;3.40;;;2.40;;
16737;SDS011;17906;47.684;10.806;2023-07-28T13:10:46;3.38;;;2.40;;
16737;SDS011;17906;47.684;10.806;2023-07-28T13:13:13;4.82;;;2.30;;
16737;SDS011;17906;47.684;10.806;2023-07-28T13:15:39;3.15;;;2.55;;
16737;SDS011;17906;47.684;10.806;2023-07-28T13:18:07;4.55;;;2.70;;
16737;SDS011;17906;47.684;10.806;2023-07-28T13:20:33;4.68;;;2.70;;
16737;SDS011;17906;47.684;10.806;2023-07-28T13:23:00;3.55;;;2.67;;
16737;SDS011;17906;47.684;10.806;2023-07-28T13:25:26;5.70;;;2.80;;
16737;SDS011;17906;47.684;10.806;2023-07-28T13:27:52;4.38;;;2.75;;
16737;SDS011;17906;47.684;10.806;2023-07-28T13:30:19;3.85;;;2.97;;
16737;SDS011;17906;47.684;10.806;2023-07-28T13:32:45;8.07;;;3.80;;
16737;SDS011;17906;47.684;10.806;2023-07-28T13:35:13;7.68;;;3.22;;
16737;SDS011;17906;47.684;10.806;2023-07-28T13:37:40;5.32;;;2.78;;
16737;SDS011;17906;47.684;10.806;2023-07-28T13:40:07;3.33;;;2.33;;
16737;SDS011;17906;47.684;10.806;2023-07-28T13:42:33;4.63;;;2.97;;
16737;SDS011;17906;47.684;10.806;2023-07-28T13:44:59;5.57;;;2.85;;
16737;SDS011;17906;47.684;10.806;2023-07-28T13:47:26;7.45;;;3.22;;
16737;SDS011;17906;47.684;10.806;2023-07-28T13:49:52;6.78;;;3.40;;
16737;SDS011;17906;47.684;10.806;2023-07-28T13:52:20;3.47;;;2.50;;
16737;SDS011;17906;47.684;10.806;2023-07-28T13:54:46;7.47;;;3.25;;
16737;SDS011;17906;47.684;10.806;2023-07-28T13:57:13;4.32;;;2.88;;
16737;SDS011;17906;47.684;10.806;2023-07-28T13:59:40;7.95;;;2.60;;
16737;SDS011;17906;47.684;10.806;2023-07-28T14:02:06;4.50;;;2.92;;
16737;SDS011;17906;47.684;10.806;2023-07-28T14:04:33;3.78;;;2.88;;
16737;SDS011;17906;47.684;10.806;2023-07-28T14:06:59;4.93;;;3.15;;
16737;SDS011;17906;47.684;10.806;2023-07-28T14:09:27;4.07;;;2.75;;
16737;SDS011;17906;47.684;10.806;2023-07-28T14:11:54;3.70;;;2.60;;
16737;SDS011;17906;47.684;10.806;2023-07-28T14:14:20;6.65;;;3.00;;
16737;SDS011;17906;47.684;10.806;2023-07-28T14:16:46;4.38;;;3.13;;
16737;SDS011;17906;47.684;10.806;2023-07-28T14:19:13;3.47;;;2.60;;
16737;SDS011;17906;47.684;10.806;2023-07-28T14:21:39;3.85;;;3.00;;
16737;SDS011;17906;47.684;10.806;2023-07-28T14:24:06;3.70;;;2.60;;
16737;SDS011;17906;47.684;10.806;2023-07-28T14:26:33;3.10;;;2.63;;
16737;SDS011;17906;47.684;10.806;2023-07-28T14:29:00;4.43;;;2.97;;
16737;SDS011;17906;47.684;10.806;2023-07-28T14:31:26;5.78;;;2.67;;
16737;SDS011;17906;47.684;10.806;2023-07-28T14:33:53;4.85;;;2.75;;
16737;SDS011;17906;47.684;10.806;2023-07-28T14:36:19;4.90;;;2.80;;
16737;SDS011;17906;47.684;10.806;2023-07-28T14:38:45;5.53;;;2.72;;